createdAt,value
2022-11-09T00:01:39.972Z,99037.36
2022-11-09T00:04:09.007Z,99036.49
2022-11-09T00:06:37.527Z,99034.30
2022-11-09T00:09:08.487Z,99033.48
2022-11-09T00:11:38.050Z,99032.37
2022-11-09T00:14:06.140Z,99032.61
2022-11-09T00:16:34.487Z,99033.85
2022-11-09T00:19:02.772Z,99030.68
2022-11-09T00:21:30.852Z,99030.11
2022-11-09T00:23:59.082Z,99027.71
2022-11-09T00:26:27.870Z,99023.18
2022-11-09T00:28:55.950Z,99023.80
2022-11-09T00:31:25.031Z,99019.89
2022-11-09T00:33:57.374Z,99022.68
2022-11-09T00:36:27.274Z,99019.56
2022-11-09T00:38:57.780Z,99023.37
2022-11-09T00:41:27.405Z,99023.65
2022-11-09T00:43:57.119Z,99025.49
2022-11-09T00:46:25.755Z,99024.80
2022-11-09T00:48:56.045Z,99027.34
2022-11-09T00:51:24.656Z,99027.83
2022-11-09T00:53:54.852Z,99028.12
2022-11-09T00:56:23.608Z,99023.77
2022-11-09T00:58:55.357Z,99022.57
2022-11-09T01:01:23.766Z,99023.52
2022-11-09T01:03:51.999Z,99018.61
2022-11-09T01:06:25.354Z,99020.61
2022-11-09T01:08:53.708Z,99020.00
2022-11-09T01:11:22.936Z,99018.91
2022-11-09T01:13:54.631Z,99016.23
2022-11-09T01:16:24.196Z,99014.63
2022-11-09T01:18:56.497Z,99014.46
2022-11-09T01:21:27.062Z,99012.45
2022-11-09T01:23:56.748Z,99008.67
2022-11-09T01:26:25.168Z,99011.42
2022-11-09T01:28:53.271Z,99012.08
2022-11-09T01:31:22.790Z,99011.04
2022-11-09T01:33:50.855Z,99011.13
2022-11-09T01:36:21.716Z,99011.38
2022-11-09T01:38:50.435Z,99009.92
2022-11-09T01:41:22.185Z,99005.41
2022-11-09T01:44:08.480Z,99008.25
2022-11-09T01:47:02.543Z,99002.80
2022-11-09T01:50:03.199Z,99002.92
2022-11-09T01:52:36.389Z,98999.97
2022-11-09T01:55:12.100Z,98997.48
2022-11-09T01:58:15.293Z,99000.22
2022-11-09T02:04:55.644Z,99002.02
2022-11-09T02:07:24.776Z,99000.21
2022-11-09T02:10:10.395Z,98998.60
2022-11-09T02:12:38.839Z,98995.77
2022-11-09T02:15:10.310Z,98993.05
2022-11-09T02:17:41.376Z,98989.78
2022-11-09T02:20:12.376Z,98986.54
2022-11-09T02:22:41.806Z,98982.80
2022-11-09T02:25:11.024Z,98983.14
2022-11-09T02:27:40.353Z,98981.70
2022-11-09T02:30:09.957Z,98987.36
2022-11-09T02:32:38.160Z,98988.44
2022-11-09T02:35:06.512Z,98985.48
2022-11-09T02:37:38.826Z,98992.42
2022-11-09T02:40:19.602Z,98995.14
2022-11-09T02:42:48.293Z,98996.58
2022-11-09T02:45:16.476Z,98994.32
2022-11-09T02:47:44.622Z,98995.30
2022-11-09T02:50:12.719Z,98994.57
2022-11-09T02:52:40.876Z,99000.51
2022-11-09T02:55:10.459Z,98997.91
2022-11-09T02:57:40.424Z,99002.55
2022-11-09T03:00:10.231Z,99000.28
2022-11-09T03:02:39.252Z,98999.30
2022-11-09T03:05:08.187Z,99000.39
2022-11-09T03:07:37.702Z,99005.36
2022-11-09T03:10:06.295Z,98995.39
2022-11-09T03:12:34.670Z,98993.35
2022-11-09T03:15:11.923Z,98997.50
2022-11-09T03:17:43.631Z,98998.35
2022-11-09T03:20:13.337Z,99002.55
2022-11-09T03:22:41.939Z,98995.78
2022-11-09T03:25:10.352Z,98993.31
2022-11-09T03:27:38.621Z,98991.91
2022-11-09T03:30:07.492Z,98988.98
2022-11-09T03:32:36.782Z,98994.96
2022-11-09T03:35:07.013Z,98988.20
2022-11-09T03:37:35.114Z,98986.80
2022-11-09T03:40:03.659Z,98982.45
2022-11-09T03:42:31.677Z,98976.18
2022-11-09T03:45:00.202Z,98974.86
2022-11-09T03:47:28.428Z,98971.75
2022-11-09T03:49:56.477Z,98966.92
2022-11-09T03:52:24.669Z,98962.95
2022-11-09T03:54:52.987Z,98966.20
2022-11-09T03:57:21.003Z,98971.44
2022-11-09T03:59:49.187Z,98968.41
2022-11-09T04:02:17.665Z,98963.30
2022-11-09T04:04:45.818Z,98961.23
2022-11-09T04:07:13.978Z,98966.45
2022-11-09T04:09:42.222Z,98963.23
2022-11-09T04:12:10.266Z,98968.30
2022-11-09T04:14:38.326Z,98968.13
2022-11-09T04:17:06.603Z,98968.65
2022-11-09T04:19:34.808Z,98972.42
2022-11-09T04:22:02.954Z,98968.67
2022-11-09T04:24:31.242Z,98967.29
2022-11-09T04:26:59.272Z,98962.89
2022-11-09T04:29:27.957Z,98964.89
2022-11-09T04:31:56.306Z,98964.48
2022-11-09T04:34:24.353Z,98959.70
2022-11-09T04:36:52.463Z,98963.77
2022-11-09T04:39:21.136Z,98958.76
2022-11-09T04:41:49.400Z,98958.30
2022-11-09T04:44:17.611Z,98957.93
2022-11-09T04:46:45.973Z,98963.79
2022-11-09T04:49:13.959Z,98960.77
2022-11-09T04:51:42.172Z,98967.11
2022-11-09T04:54:11.837Z,98967.59
2022-11-09T04:56:40.179Z,98968.98
2022-11-09T04:59:08.468Z,98966.97
2022-11-09T05:01:36.869Z,98965.62
2022-11-09T05:04:04.958Z,98962.31
2022-11-09T05:06:33.275Z,98955.86
2022-11-09T05:09:05.207Z,98953.36
2022-11-09T05:11:35.821Z,98951.72
2022-11-09T05:14:04.359Z,98955.37
2022-11-09T05:16:32.598Z,98958.62
2022-11-09T05:19:00.791Z,98958.63
2022-11-09T05:21:29.264Z,98961.79
2022-11-09T05:24:00.462Z,98960.14
2022-11-09T05:26:30.114Z,98961.83
2022-11-09T05:28:59.831Z,98960.23
2022-11-09T05:31:28.708Z,98960.84
2022-11-09T05:33:57.103Z,98959.25
2022-11-09T05:36:25.680Z,98954.94
2022-11-09T05:38:54.279Z,98957.06
2022-11-09T05:41:22.427Z,98959.90
2022-11-09T05:43:50.567Z,98965.44
2022-11-09T05:46:19.298Z,98963.76
2022-11-09T05:48:47.456Z,98962.11
2022-11-09T05:51:16.353Z,98962.61
2022-11-09T05:53:46.663Z,98959.97
2022-11-09T05:56:15.708Z,98963.68
2022-11-09T05:58:44.121Z,98965.03
2022-11-09T06:01:14.969Z,98964.09
2022-11-09T06:03:44.370Z,98969.96
2022-11-09T06:06:14.893Z,98972.84
2022-11-09T06:08:43.346Z,98972.99
2022-11-09T06:11:16.813Z,98971.69
2022-11-09T06:13:50.475Z,98968.08
2022-11-09T06:16:18.483Z,98968.50
2022-11-09T06:18:46.568Z,98967.97
2022-11-09T06:21:15.081Z,98973.30
2022-11-09T06:23:43.152Z,98969.98
2022-11-09T06:26:12.337Z,98975.94
2022-11-09T06:28:41.941Z,98978.23
2022-11-09T06:31:13.319Z,98975.83
2022-11-09T06:33:41.881Z,98977.10
2022-11-09T06:36:11.512Z,98975.46
2022-11-09T06:38:40.487Z,98977.15
2022-11-09T06:41:09.517Z,98973.54
2022-11-09T06:43:37.817Z,98972.23
2022-11-09T06:46:06.323Z,98970.58
2022-11-09T06:48:34.727Z,98965.05
2022-11-09T06:51:06.195Z,98968.48
2022-11-09T06:53:35.267Z,98964.50
2022-11-09T06:56:04.988Z,98966.02
2022-11-09T06:58:33.228Z,98966.70
2022-11-09T07:01:13.727Z,98960.92
2022-11-09T07:03:42.287Z,98964.85
2022-11-09T07:06:12.982Z,98965.21
2022-11-09T07:08:42.120Z,98957.82
2022-11-09T07:11:13.540Z,98957.19
2022-11-09T07:13:42.069Z,98961.05
2022-11-09T07:16:12.700Z,98966.29
2022-11-09T07:18:41.094Z,98960.75
2022-11-09T07:21:14.115Z,98960.86
2022-11-09T07:23:43.440Z,98966.93
2022-11-09T07:26:11.623Z,98966.51
2022-11-09T07:28:40.430Z,98967.52
2022-11-09T07:31:09.653Z,98971.79
2022-11-09T07:33:37.892Z,98972.76
2022-11-09T07:36:06.474Z,98980.19
2022-11-09T07:38:35.115Z,98975.46
2022-11-09T07:41:03.349Z,98976.85
2022-11-09T07:43:31.602Z,98977.92
2022-11-09T07:46:04.740Z,98978.48
2022-11-09T07:48:32.903Z,98979.98
2022-11-09T07:51:01.990Z,98978.33
2022-11-09T07:53:30.346Z,98973.17
2022-11-09T07:56:00.956Z,98969.90
2022-11-09T07:58:29.775Z,98969.20
2022-11-09T08:00:58.869Z,98969.68
2022-11-09T08:03:27.029Z,98970.11
2022-11-09T08:05:56.829Z,98970.92
2022-11-09T08:08:25.175Z,98971.51
2022-11-09T08:10:53.673Z,98970.39
2022-11-09T08:13:22.126Z,98970.89
2022-11-09T08:15:50.759Z,98968.36
2022-11-09T08:18:21.178Z,98965.45
2022-11-09T08:20:49.884Z,98961.64
2022-11-09T08:23:21.070Z,98960.23
2022-11-09T08:25:50.793Z,98954.95
2022-11-09T08:28:19.763Z,98953.05
2022-11-09T08:30:59.776Z,98952.85
2022-11-09T08:33:30.348Z,98955.02
2022-11-09T08:35:58.424Z,98956.58
2022-11-09T08:38:26.577Z,98963.49
2022-11-09T08:40:58.465Z,98962.32
2022-11-09T08:43:26.932Z,98966.91
2022-11-09T08:45:55.079Z,98964.45
2022-11-09T08:48:23.521Z,98964.02
2022-11-09T08:50:53.715Z,98963.22
2022-11-09T08:53:23.616Z,98964.41
2022-11-09T08:55:53.000Z,98963.92
2022-11-09T08:58:21.894Z,98966.30
2022-11-09T09:00:50.709Z,98960.95
2022-11-09T09:03:19.074Z,98963.22
2022-11-09T09:05:47.208Z,98961.55
2022-11-09T09:08:15.844Z,98965.33
2022-11-09T09:10:44.255Z,98968.75
2022-11-09T09:13:12.459Z,98972.72
2022-11-09T09:15:40.600Z,98979.14
2022-11-09T09:18:08.950Z,98981.80
2022-11-09T09:20:37.060Z,98983.77
2022-11-09T09:23:05.516Z,98983.38
2022-11-09T09:25:33.742Z,98988.52
2022-11-09T09:28:01.781Z,98984.55
2022-11-09T09:30:29.981Z,98981.78
2022-11-09T09:33:00.240Z,98982.92
2022-11-09T09:35:28.828Z,98977.16
2022-11-09T09:37:58.363Z,98981.75
2022-11-09T09:40:50.676Z,98987.20
2022-11-09T09:43:27.741Z,98980.48
2022-11-09T09:45:56.295Z,98974.27
2022-11-09T09:48:40.579Z,98977.20
2022-11-09T09:51:38.465Z,98974.76
2022-11-09T09:54:21.080Z,98970.05
2022-11-09T09:56:51.485Z,98972.00
2022-11-09T09:59:41.660Z,98974.07
2022-11-09T10:02:25.426Z,98975.38
2022-11-09T10:05:00.405Z,98968.42
2022-11-09T10:07:34.814Z,98966.29
2022-11-09T10:10:27.085Z,98968.54
2022-11-09T10:13:15.647Z,98970.88
2022-11-09T10:15:59.117Z,98971.95
2022-11-09T10:18:49.307Z,98971.64
2022-11-09T10:21:29.254Z,98965.79
2022-11-09T10:24:27.844Z,98966.41
2022-11-09T10:26:58.169Z,98964.11
2022-11-09T10:29:33.110Z,98967.70
2022-11-09T10:32:09.641Z,98966.45
2022-11-09T10:35:21.513Z,98966.17
2022-11-09T10:37:52.586Z,98967.08
2022-11-09T10:40:45.786Z,98962.34
2022-11-09T10:43:32.265Z,98959.32
2022-11-09T10:46:21.305Z,98962.73
2022-11-09T10:49:20.799Z,98961.27
2022-11-09T10:52:32.573Z,98959.61
2022-11-09T10:55:27.914Z,98957.61
2022-11-09T10:58:32.645Z,98963.75
2022-11-09T11:01:21.108Z,98965.66
2022-11-09T11:04:23.544Z,98965.35
2022-11-09T11:07:19.693Z,98970.37
2022-11-09T11:10:17.103Z,98970.25
2022-11-09T11:13:06.161Z,98966.13
2022-11-09T11:15:53.008Z,98972.11
2022-11-09T11:18:46.031Z,98973.05
2022-11-09T11:21:33.122Z,98975.52
2022-11-09T11:24:21.163Z,98977.61
2022-11-09T11:27:24.222Z,98981.59
2022-11-09T11:30:36.286Z,98987.42
2022-11-09T11:33:23.891Z,98990.94
2022-11-09T11:36:27.662Z,98989.52
2022-11-09T11:39:29.810Z,98989.14
2022-11-09T11:42:48.673Z,98985.74
2022-11-09T11:45:46.653Z,98983.84
2022-11-09T11:48:51.896Z,98987.25
2022-11-09T11:51:51.342Z,98988.41
2022-11-09T11:54:47.186Z,98983.75
2022-11-09T11:58:11.972Z,98986.08
2022-11-09T12:01:11.560Z,98981.19
2022-11-09T12:04:31.018Z,98976.71
2022-11-09T12:07:38.875Z,98973.64
2022-11-09T12:10:50.049Z,98973.63
2022-11-09T12:14:17.884Z,98971.93
2022-11-09T12:17:04.653Z,98971.05
2022-11-09T12:20:07.235Z,98964.48
2022-11-09T12:22:56.829Z,98959.59
2022-11-09T12:26:01.851Z,98952.80
2022-11-09T12:29:10.602Z,98956.23
2022-11-09T12:32:21.845Z,98957.52
2022-11-09T12:35:09.049Z,98958.06
2022-11-09T12:38:14.295Z,98957.92
2022-11-09T12:41:06.410Z,98954.93
2022-11-09T12:44:04.281Z,98952.69
2022-11-09T12:47:10.537Z,98955.11
2022-11-09T12:49:57.881Z,98954.29
2022-11-09T12:52:46.755Z,98952.27
2022-11-09T12:55:57.858Z,98950.39
2022-11-09T12:58:45.287Z,98948.11
2022-11-09T13:01:35.426Z,98954.47
2022-11-09T13:04:23.970Z,98955.48
2022-11-09T13:07:28.430Z,98958.16
2022-11-09T13:10:32.485Z,98960.67
2022-11-09T13:13:23.264Z,98965.98
2022-11-09T13:16:20.673Z,98965.15
2022-11-09T13:19:08.771Z,98963.92
2022-11-09T13:21:55.661Z,98965.21
2022-11-09T13:25:00.174Z,98968.16
2022-11-09T13:27:48.572Z,98967.00
2022-11-09T13:30:42.703Z,98966.05
2022-11-09T13:33:30.689Z,98962.36
2022-11-09T13:36:18.961Z,98963.45
2022-11-09T13:39:29.665Z,98962.73
2022-11-09T13:42:33.641Z,98956.91
2022-11-09T13:45:33.118Z,98959.09
2022-11-09T13:48:23.095Z,98967.02
2022-11-09T13:51:37.486Z,98967.78
2022-11-09T13:54:30.343Z,98963.98
2022-11-09T13:57:17.610Z,98961.52
2022-11-09T14:00:08.183Z,98957.98
2022-11-09T14:02:57.175Z,98956.85
2022-11-09T14:05:45.692Z,98957.77
2022-11-09T14:08:40.380Z,98953.63
2022-11-09T14:11:28.131Z,98957.11
2022-11-09T14:14:23.705Z,98956.52
2022-11-09T14:17:27.974Z,98959.11
2022-11-09T14:20:49.805Z,98967.96
2022-11-09T14:23:36.766Z,98970.88
2022-11-09T14:26:25.357Z,98966.00
2022-11-09T14:29:24.019Z,98962.83
2022-11-09T14:32:37.221Z,98971.34
2022-11-09T14:35:24.242Z,98970.69
2022-11-09T14:38:33.604Z,98969.55
2022-11-09T14:41:23.068Z,98968.04
2022-11-09T14:44:19.516Z,98966.70
2022-11-09T14:47:28.467Z,98973.36
2022-11-09T14:50:36.955Z,98975.42
2022-11-09T14:53:31.237Z,98973.28
2022-11-09T14:56:21.587Z,98979.70
2022-11-09T14:59:15.312Z,98979.70
2022-11-09T15:02:06.776Z,98976.20
2022-11-09T15:05:01.669Z,98971.53
2022-11-09T15:07:48.953Z,98968.45
2022-11-09T15:10:36.711Z,98972.28
2022-11-09T15:13:36.649Z,98976.10
2022-11-09T15:16:28.622Z,98977.28
2022-11-09T15:19:29.798Z,98977.04
2022-11-09T15:22:48.385Z,98974.88
2022-11-09T15:25:41.219Z,98970.35
2022-11-09T15:28:31.071Z,98969.38
2022-11-09T15:31:19.691Z,98966.35
2022-11-09T15:34:25.517Z,98973.14
2022-11-09T15:37:23.263Z,98974.11
2022-11-09T15:40:15.449Z,98975.47
2022-11-09T15:43:02.074Z,98976.16
2022-11-09T15:45:49.343Z,98982.02
2022-11-09T15:48:36.452Z,98977.94
2022-11-09T15:51:23.451Z,98982.92
2022-11-09T15:54:10.645Z,98982.43
2022-11-09T15:56:57.558Z,98984.88
2022-11-09T15:59:45.587Z,98987.55
2022-11-09T16:02:32.811Z,98989.82
2022-11-09T16:05:19.835Z,98989.75
2022-11-09T16:08:07.865Z,98982.89
2022-11-09T16:10:54.669Z,98983.58
2022-11-09T16:13:41.399Z,98977.93
2022-11-09T16:16:28.622Z,98980.65
2022-11-09T16:19:15.884Z,98979.64
2022-11-09T16:22:02.952Z,98977.36
2022-11-09T16:24:49.805Z,98973.98
2022-11-09T16:27:50.118Z,98971.62
2022-11-09T16:30:40.583Z,98977.70
2022-11-09T16:33:31.152Z,98981.69
2022-11-09T16:36:22.197Z,98976.73
2022-11-09T16:39:12.815Z,98980.81
2022-11-09T16:42:02.105Z,98982.90
2022-11-09T16:44:49.660Z,98978.41
2022-11-09T16:47:41.706Z,98971.44
2022-11-09T16:50:28.401Z,98964.05
2022-11-09T16:53:15.211Z,98968.45
2022-11-09T16:56:02.165Z,98968.23
2022-11-09T16:58:48.652Z,98956.79
2022-11-09T17:01:35.746Z,98960.46
2022-11-09T17:04:23.195Z,98962.03
2022-11-09T17:07:10.927Z,98965.15
2022-11-09T17:09:57.729Z,98968.73
2022-11-09T17:12:44.659Z,98976.38
2022-11-09T17:15:31.680Z,98974.77
2022-11-09T17:18:18.812Z,98969.67
2022-11-09T17:21:14.546Z,98969.41
2022-11-09T17:24:01.592Z,98964.37
2022-11-09T17:26:48.109Z,98956.66
2022-11-09T17:29:34.575Z,98954.75
2022-11-09T17:32:25.109Z,98951.86
2022-11-09T17:35:11.797Z,98946.70
2022-11-09T17:37:58.175Z,98947.68
2022-11-09T17:40:45.215Z,98950.82
2022-11-09T17:43:37.670Z,98952.75
2022-11-09T17:46:24.770Z,98963.55
2022-11-09T17:49:11.480Z,98962.99
2022-11-09T17:51:58.489Z,98963.59
2022-11-09T17:54:45.374Z,98971.52
2022-11-09T17:57:33.056Z,98972.27
2022-11-09T18:00:20.097Z,98962.52
2022-11-09T18:03:07.079Z,98961.02
2022-11-09T18:05:53.468Z,98955.69
2022-11-09T18:08:41.052Z,98955.72
2022-11-09T18:11:30.365Z,98955.34
2022-11-09T18:14:17.291Z,98957.42
2022-11-09T18:17:04.418Z,98956.88
2022-11-09T18:19:51.553Z,98964.99
2022-11-09T18:22:38.570Z,98961.35
2022-11-09T18:25:25.938Z,98968.98
2022-11-09T18:28:13.690Z,98978.69
2022-11-09T18:31:05.875Z,98976.80
2022-11-09T18:33:53.341Z,98978.98
2022-11-09T18:36:40.352Z,98987.70
2022-11-09T18:39:27.318Z,98997.86
2022-11-09T18:42:14.462Z,98996.00
2022-11-09T18:45:01.332Z,98997.33
2022-11-09T18:47:49.710Z,98998.42
2022-11-09T18:50:38.269Z,98993.75
2022-11-09T18:53:28.151Z,98989.28
2022-11-09T18:56:23.448Z,98992.40
2022-11-09T18:59:12.384Z,98992.65
2022-11-09T19:01:59.221Z,98990.78
2022-11-09T19:04:46.284Z,98991.45
2022-11-09T19:07:33.071Z,98988.13
2022-11-09T19:10:20.358Z,98988.44
2022-11-09T19:13:07.184Z,98989.30
2022-11-09T19:15:58.385Z,98989.52
2022-11-09T19:18:45.965Z,98993.48
2022-11-09T19:21:40.782Z,98998.39
2022-11-09T19:24:28.805Z,98994.21
2022-11-09T19:27:15.694Z,99000.05
2022-11-09T19:30:07.979Z,99000.20
2022-11-09T19:32:56.324Z,99004.76
2022-11-09T19:35:43.454Z,99007.59
2022-11-09T19:38:30.023Z,99011.74
2022-11-09T19:41:16.841Z,99010.52
2022-11-09T19:44:03.769Z,99005.42
2022-11-09T19:46:50.457Z,99001.48
2022-11-09T19:49:37.303Z,99005.75
2022-11-09T19:52:23.866Z,99008.13
2022-11-09T19:55:10.887Z,99003.98
2022-11-09T19:57:57.377Z,99000.73
2022-11-09T20:00:44.147Z,99001.88
2022-11-09T20:03:32.267Z,99000.16
2022-11-09T20:06:19.962Z,99003.79
2022-11-09T20:09:07.019Z,99008.76
2022-11-09T20:12:12.554Z,99006.18
2022-11-09T20:14:59.290Z,99010.30
2022-11-09T20:17:46.122Z,99012.45
2022-11-09T20:20:32.846Z,99013.73
2022-11-09T20:23:21.749Z,99019.67
2022-11-09T20:26:11.139Z,99020.95
2022-11-09T20:28:57.974Z,99021.23
2022-11-09T20:31:44.910Z,99021.65
2022-11-09T20:34:32.245Z,99019.52
2022-11-09T20:37:18.910Z,99015.29
2022-11-09T20:40:08.652Z,99016.23
2022-11-09T20:42:55.413Z,99014.06
2022-11-09T20:45:41.841Z,99013.36
2022-11-09T20:48:51.939Z,99006.22
2022-11-09T20:51:35.433Z,99012.90
2022-11-09T20:54:22.469Z,99014.55
2022-11-09T20:57:09.827Z,99018.57
2022-11-09T20:59:56.167Z,99017.87
2022-11-09T21:02:43.537Z,99022.17
2022-11-09T21:05:30.376Z,99022.62
2022-11-09T21:08:17.376Z,99024.79
2022-11-09T21:11:06.428Z,99029.42
2022-11-09T21:13:54.169Z,99026.63
2022-11-09T21:16:40.744Z,99024.17
2022-11-09T21:19:27.645Z,99026.46
2022-11-09T21:22:14.656Z,99026.48
2022-11-09T21:25:20.183Z,99033.52
2022-11-09T21:28:33.735Z,99030.63
2022-11-09T21:31:20.426Z,99030.20
2022-11-09T21:34:07.143Z,99023.83
2022-11-09T21:36:54.227Z,99021.54
2022-11-09T21:39:42.237Z,99028.13
2022-11-09T21:42:29.238Z,99027.92
2022-11-09T21:45:16.563Z,99023.40
2022-11-09T21:48:04.191Z,99019.30
2022-11-09T21:50:52.947Z,99017.70
2022-11-09T21:53:39.877Z,99012.77
2022-11-09T21:56:27.410Z,99010.58
2022-11-09T21:59:14.539Z,99011.98
2022-11-09T22:02:01.279Z,99017.52
2022-11-09T22:04:48.258Z,99029.27
2022-11-09T22:07:35.234Z,99030.16
2022-11-09T22:10:22.044Z,99031.95
2022-11-09T22:13:31.500Z,99032.23
2022-11-09T22:16:19.887Z,99028.23
2022-11-09T22:19:25.251Z,99038.16
2022-11-09T22:22:12.838Z,99029.59
2022-11-09T22:25:00.062Z,99025.17
2022-11-09T22:27:46.828Z,99029.29
2022-11-09T22:30:33.364Z,99035.83
2022-11-09T22:33:24.464Z,99034.19
2022-11-09T22:36:14.586Z,99036.65
2022-11-09T22:39:01.230Z,99048.36
2022-11-09T22:41:47.785Z,99050.13
2022-11-09T22:44:35.281Z,99038.02
2022-11-09T22:47:21.983Z,99045.27
2022-11-09T22:50:08.757Z,99042.11
2022-11-09T22:53:03.449Z,99032.81
2022-11-09T22:55:55.219Z,99036.63
2022-11-09T22:58:42.132Z,99045.71
2022-11-09T23:01:29.016Z,99050.48
2022-11-09T23:04:16.800Z,99048.47
2022-11-09T23:07:03.659Z,99055.56
2022-11-09T23:09:50.381Z,99058.40
2022-11-09T23:12:37.536Z,99059.60
2022-11-09T23:15:24.377Z,99060.95
2022-11-09T23:18:30.252Z,99052.17
2022-11-09T23:21:17.612Z,99056.08
2022-11-09T23:24:07.291Z,99059.81
2022-11-09T23:26:54.151Z,99066.55
2022-11-09T23:29:41.214Z,99076.56
2022-11-09T23:32:28.183Z,99079.88
2022-11-09T23:35:15.223Z,99082.64
2022-11-09T23:38:03.694Z,99079.55
2022-11-09T23:40:50.812Z,99077.74
2022-11-09T23:43:38.183Z,99074.58
2022-11-09T23:46:24.961Z,99072.73
2022-11-09T23:49:11.697Z,99076.54
2022-11-09T23:51:58.590Z,99074.61
2022-11-09T23:54:45.914Z,99077.52
2022-11-09T23:57:32.817Z,99081.22
